sensor_id;sensor_type;location;lat;lon;timestamp;temperature;humidity
59923;DHT22;45778;51.142;3.732;2023-07-31T00:00:47;16.70;99.90
59923;DHT22;45778;51.142;3.732;2023-07-31T00:03:13;16.80;99.90
59923;DHT22;45778;51.142;3.732;2023-07-31T00:05:38;16.80;99.90
59923;DHT22;45778;51.142;3.732;2023-07-31T00:08:04;16.80;99.90
59923;DHT22;45778;51.142;3.732;2023-07-31T00:10:30;16.80;99.90
59923;DHT22;45778;51.142;3.732;2023-07-31T00:12:55;16.80;99.90
59923;DHT22;45778;51.142;3.732;2023-07-31T00:15:21;16.80;99.90
59923;DHT22;45778;51.142;3.732;2023-07-31T00:17:47;16.80;99.90
59923;DHT22;45778;51.142;3.732;2023-07-31T00:20:13;16.80;99.90
59923;DHT22;45778;51.142;3.732;2023-07-31T00:22:38;16.80;99.90
59923;DHT22;45778;51.142;3.732;2023-07-31T00:25:04;16.80;99.90
59923;DHT22;45778;51.142;3.732;2023-07-31T00:27:32;16.80;99.90
59923;DHT22;45778;51.142;3.732;2023-07-31T00:29:57;16.80;99.90
59923;DHT22;45778;51.142;3.732;2023-07-31T00:32:23;16.80;99.90
59923;DHT22;45778;51.142;3.732;2023-07-31T00:34:49;16.80;99.90
59923;DHT22;45778;51.142;3.732;2023-07-31T00:37:14;16.90;99.90
59923;DHT22;45778;51.142;3.732;2023-07-31T00:39:41;16.90;99.90
59923;DHT22;45778;51.142;3.732;2023-07-31T00:42:06;16.90;99.90
59923;DHT22;45778;51.142;3.732;2023-07-31T00:44:32;16.90;99.90
59923;DHT22;45778;51.142;3.732;2023-07-31T00:46:58;16.90;99.90
59923;DHT22;45778;51.142;3.732;2023-07-31T00:49:25;16.90;99.90
59923;DHT22;45778;51.142;3.732;2023-07-31T00:51:51;16.90;99.90
59923;DHT22;45778;51.142;3.732;2023-07-31T00:54:17;16.90;99.90
59923;DHT22;45778;51.142;3.732;2023-07-31T00:56:45;16.90;99.90
59923;DHT22;45778;51.142;3.732;2023-07-31T00:59:11;16.90;99.90
59923;DHT22;45778;51.142;3.732;2023-07-31T01:01:37;16.80;99.90
59923;DHT22;45778;51.142;3.732;2023-07-31T01:04:03;16.80;99.90
59923;DHT22;45778;51.142;3.732;2023-07-31T01:06:50;16.90;99.90
59923;DHT22;45778;51.142;3.732;2023-07-31T01:09:22;16.90;99.90
59923;DHT22;45778;51.142;3.732;2023-07-31T01:11:56;16.80;99.90
59923;DHT22;45778;51.142;3.732;2023-07-31T01:14:22;16.90;99.90
59923;DHT22;45778;51.142;3.732;2023-07-31T01:16:48;16.90;99.90
59923;DHT22;45778;51.142;3.732;2023-07-31T01:19:15;16.90;99.90
59923;DHT22;45778;51.142;3.732;2023-07-31T01:27:25;16.80;99.90
59923;DHT22;45778;51.142;3.732;2023-07-31T01:30:07;16.90;99.90
59923;DHT22;45778;51.142;3.732;2023-07-31T01:32:38;16.80;99.90
59923;DHT22;45778;51.142;3.732;2023-07-31T01:35:05;16.80;99.90
59923;DHT22;45778;51.142;3.732;2023-07-31T01:37:31;16.80;99.90
59923;DHT22;45778;51.142;3.732;2023-07-31T01:39:57;16.70;99.90
59923;DHT22;45778;51.142;3.732;2023-07-31T01:42:23;16.60;99.90
59923;DHT22;45778;51.142;3.732;2023-07-31T01:44:48;16.60;99.90
59923;DHT22;45778;51.142;3.732;2023-07-31T01:47:14;16.60;99.90
59923;DHT22;45778;51.142;3.732;2023-07-31T01:49:40;16.70;99.90
59923;DHT22;45778;51.142;3.732;2023-07-31T01:52:06;16.70;99.90
59923;DHT22;45778;51.142;3.732;2023-07-31T01:54:31;16.70;99.90
59923;DHT22;45778;51.142;3.732;2023-07-31T01:56:58;16.80;99.90
59923;DHT22;45778;51.142;3.732;2023-07-31T01:59:23;16.80;99.90
59923;DHT22;45778;51.142;3.732;2023-07-31T02:01:49;16.90;99.90
59923;DHT22;45778;51.142;3.732;2023-07-31T02:04:14;16.90;99.90
59923;DHT22;45778;51.142;3.732;2023-07-31T02:06:40;16.90;99.90
59923;DHT22;45778;51.142;3.732;2023-07-31T02:09:06;16.90;99.90
59923;DHT22;45778;51.142;3.732;2023-07-31T02:11:31;16.90;99.90
59923;DHT22;45778;51.142;3.732;2023-07-31T02:13:57;16.90;99.90
59923;DHT22;45778;51.142;3.732;2023-07-31T02:16:23;16.90;99.90
59923;DHT22;45778;51.142;3.732;2023-07-31T02:18:48;17.00;99.90
59923;DHT22;45778;51.142;3.732;2023-07-31T02:21:14;17.00;99.90
59923;DHT22;45778;51.142;3.732;2023-07-31T02:23:40;16.90;99.90
59923;DHT22;45778;51.142;3.732;2023-07-31T02:26:05;17.00;99.90
59923;DHT22;45778;51.142;3.732;2023-07-31T02:28:31;17.00;99.90
59923;DHT22;45778;51.142;3.732;2023-07-31T02:30:56;17.10;99.90
59923;DHT22;45778;51.142;3.732;2023-07-31T02:33:22;17.10;99.90
59923;DHT22;45778;51.142;3.732;2023-07-31T02:35:48;17.10;99.90
59923;DHT22;45778;51.142;3.732;2023-07-31T02:38:13;17.10;99.90
59923;DHT22;45778;51.142;3.732;2023-07-31T02:40:40;17.10;99.90
59923;DHT22;45778;51.142;3.732;2023-07-31T02:43:07;17.10;99.90
59923;DHT22;45778;51.142;3.732;2023-07-31T02:45:33;17.10;99.90
59923;DHT22;45778;51.142;3.732;2023-07-31T02:47:58;17.10;99.90
59923;DHT22;45778;51.142;3.732;2023-07-31T02:50:24;17.10;99.90
59923;DHT22;45778;51.142;3.732;2023-07-31T02:52:49;17.00;99.90
59923;DHT22;45778;51.142;3.732;2023-07-31T02:55:15;17.10;99.90
59923;DHT22;45778;51.142;3.732;2023-07-31T02:57:41;17.10;99.90
59923;DHT22;45778;51.142;3.732;2023-07-31T03:00:07;17.10;99.90
59923;DHT22;45778;51.142;3.732;2023-07-31T03:02:33;17.10;99.90
59923;DHT22;45778;51.142;3.732;2023-07-31T03:04:58;17.10;99.90
59923;DHT22;45778;51.142;3.732;2023-07-31T03:07:24;17.00;99.90
59923;DHT22;45778;51.142;3.732;2023-07-31T03:09:50;16.90;99.90
59923;DHT22;45778;51.142;3.732;2023-07-31T03:12:16;16.80;99.90
59923;DHT22;45778;51.142;3.732;2023-07-31T03:14:41;16.70;99.90
59923;DHT22;45778;51.142;3.732;2023-07-31T03:17:07;16.70;99.90
59923;DHT22;45778;51.142;3.732;2023-07-31T03:19:33;16.70;99.90
59923;DHT22;45778;51.142;3.732;2023-07-31T03:21:59;16.60;99.90
59923;DHT22;45778;51.142;3.732;2023-07-31T03:24:26;16.40;99.90
59923;DHT22;45778;51.142;3.732;2023-07-31T03:26:51;16.40;99.90
59923;DHT22;45778;51.142;3.732;2023-07-31T03:29:17;16.30;99.90
59923;DHT22;45778;51.142;3.732;2023-07-31T03:31:43;16.20;99.90
59923;DHT22;45778;51.142;3.732;2023-07-31T03:34:08;16.20;99.90
59923;DHT22;45778;51.142;3.732;2023-07-31T03:36:34;16.20;99.90
59923;DHT22;45778;51.142;3.732;2023-07-31T03:38:59;16.20;99.90
59923;DHT22;45778;51.142;3.732;2023-07-31T03:41:25;16.20;99.90
59923;DHT22;45778;51.142;3.732;2023-07-31T03:43:51;16.10;99.90
59923;DHT22;45778;51.142;3.732;2023-07-31T03:46:22;16.10;99.90
59923;DHT22;45778;51.142;3.732;2023-07-31T03:48:48;16.10;99.90
59923;DHT22;45778;51.142;3.732;2023-07-31T03:51:14;16.10;99.90
59923;DHT22;45778;51.142;3.732;2023-07-31T03:53:39;16.10;99.90
59923;DHT22;45778;51.142;3.732;2023-07-31T03:56:05;16.10;99.90
59923;DHT22;45778;51.142;3.732;2023-07-31T03:58:31;16.10;99.90
59923;DHT22;45778;51.142;3.732;2023-07-31T04:00:57;16.10;99.90
59923;DHT22;45778;51.142;3.732;2023-07-31T04:03:22;16.10;99.90
59923;DHT22;45778;51.142;3.732;2023-07-31T04:05:48;16.10;99.90
59923;DHT22;45778;51.142;3.732;2023-07-31T04:08:14;16.20;99.90
59923;DHT22;45778;51.142;3.732;2023-07-31T04:10:39;16.20;99.90
59923;DHT22;45778;51.142;3.732;2023-07-31T04:13:05;16.10;99.90
59923;DHT22;45778;51.142;3.732;2023-07-31T04:15:31;16.10;99.90
59923;DHT22;45778;51.142;3.732;2023-07-31T04:17:56;16.20;99.90
59923;DHT22;45778;51.142;3.732;2023-07-31T04:20:22;16.20;99.90
59923;DHT22;45778;51.142;3.732;2023-07-31T04:22:48;16.20;99.90
59923;DHT22;45778;51.142;3.732;2023-07-31T04:25:14;16.20;99.90
59923;DHT22;45778;51.142;3.732;2023-07-31T04:27:40;16.20;99.90
59923;DHT22;45778;51.142;3.732;2023-07-31T04:30:06;16.20;99.90
59923;DHT22;45778;51.142;3.732;2023-07-31T04:32:32;16.20;99.90
59923;DHT22;45778;51.142;3.732;2023-07-31T04:34:57;16.20;99.90
59923;DHT22;45778;51.142;3.732;2023-07-31T04:37:23;16.30;99.90
59923;DHT22;45778;51.142;3.732;2023-07-31T04:39:48;16.30;99.90
59923;DHT22;45778;51.142;3.732;2023-07-31T04:42:14;16.20;99.90
59923;DHT22;45778;51.142;3.732;2023-07-31T04:44:40;16.30;99.90
59923;DHT22;45778;51.142;3.732;2023-07-31T04:47:05;16.30;99.90
59923;DHT22;45778;51.142;3.732;2023-07-31T04:49:32;16.30;99.90
59923;DHT22;45778;51.142;3.732;2023-07-31T04:51:58;16.20;99.90
59923;DHT22;45778;51.142;3.732;2023-07-31T04:54:23;16.20;99.90
59923;DHT22;45778;51.142;3.732;2023-07-31T04:56:49;16.30;99.90
59923;DHT22;45778;51.142;3.732;2023-07-31T04:59:15;16.30;99.90
59923;DHT22;45778;51.142;3.732;2023-07-31T05:01:40;16.20;99.90
59923;DHT22;45778;51.142;3.732;2023-07-31T05:04:06;16.20;99.90
59923;DHT22;45778;51.142;3.732;2023-07-31T05:06:32;16.20;99.90
59923;DHT22;45778;51.142;3.732;2023-07-31T05:08:58;16.20;99.90
59923;DHT22;45778;51.142;3.732;2023-07-31T05:11:24;16.20;99.90
59923;DHT22;45778;51.142;3.732;2023-07-31T05:13:49;16.20;99.90
59923;DHT22;45778;51.142;3.732;2023-07-31T05:16:15;16.20;99.90
59923;DHT22;45778;51.142;3.732;2023-07-31T05:18:40;16.30;99.90
59923;DHT22;45778;51.142;3.732;2023-07-31T05:21:06;16.30;99.90
59923;DHT22;45778;51.142;3.732;2023-07-31T05:23:32;16.40;99.90
59923;DHT22;45778;51.142;3.732;2023-07-31T05:26:05;16.40;99.90
59923;DHT22;45778;51.142;3.732;2023-07-31T05:28:31;16.40;99.90
59923;DHT22;45778;51.142;3.732;2023-07-31T05:31:01;16.40;99.90
59923;DHT22;45778;51.142;3.732;2023-07-31T05:33:27;16.40;99.90
59923;DHT22;45778;51.142;3.732;2023-07-31T05:35:53;16.40;99.90
59923;DHT22;45778;51.142;3.732;2023-07-31T05:38:18;16.40;99.90
59923;DHT22;45778;51.142;3.732;2023-07-31T05:40:44;16.50;99.90
59923;DHT22;45778;51.142;3.732;2023-07-31T05:43:10;16.50;99.90
59923;DHT22;45778;51.142;3.732;2023-07-31T05:45:35;16.50;99.90
59923;DHT22;45778;51.142;3.732;2023-07-31T05:48:02;16.50;99.90
59923;DHT22;45778;51.142;3.732;2023-07-31T05:50:28;16.40;99.90
59923;DHT22;45778;51.142;3.732;2023-07-31T05:52:54;16.50;99.90
59923;DHT22;45778;51.142;3.732;2023-07-31T05:55:19;16.50;99.90
59923;DHT22;45778;51.142;3.732;2023-07-31T05:57:45;16.50;99.90
59923;DHT22;45778;51.142;3.732;2023-07-31T06:00:12;16.60;99.90
59923;DHT22;45778;51.142;3.732;2023-07-31T06:02:38;16.50;99.90
59923;DHT22;45778;51.142;3.732;2023-07-31T06:05:04;16.50;99.90
59923;DHT22;45778;51.142;3.732;2023-07-31T06:07:31;16.40;99.90
59923;DHT22;45778;51.142;3.732;2023-07-31T06:09:57;16.50;99.90
59923;DHT22;45778;51.142;3.732;2023-07-31T06:12:28;16.50;99.90
59923;DHT22;45778;51.142;3.732;2023-07-31T06:14:54;16.50;99.90
59923;DHT22;45778;51.142;3.732;2023-07-31T06:17:20;16.50;99.90
59923;DHT22;45778;51.142;3.732;2023-07-31T06:19:46;16.50;99.90
59923;DHT22;45778;51.142;3.732;2023-07-31T06:22:12;16.50;99.90
59923;DHT22;45778;51.142;3.732;2023-07-31T06:24:38;16.50;99.90
59923;DHT22;45778;51.142;3.732;2023-07-31T06:27:04;16.50;99.90
59923;DHT22;45778;51.142;3.732;2023-07-31T06:29:30;16.50;99.90
59923;DHT22;45778;51.142;3.732;2023-07-31T06:31:56;16.50;99.90
59923;DHT22;45778;51.142;3.732;2023-07-31T06:34:22;16.50;99.90
59923;DHT22;45778;51.142;3.732;2023-07-31T06:36:47;16.50;99.90
59923;DHT22;45778;51.142;3.732;2023-07-31T06:39:13;16.50;99.90
59923;DHT22;45778;51.142;3.732;2023-07-31T06:41:39;16.50;99.90
59923;DHT22;45778;51.142;3.732;2023-07-31T06:44:04;16.60;99.90
59923;DHT22;45778;51.142;3.732;2023-07-31T06:46:30;16.60;99.90
59923;DHT22;45778;51.142;3.732;2023-07-31T06:48:56;16.50;99.90
59923;DHT22;45778;51.142;3.732;2023-07-31T06:51:21;16.70;99.90
59923;DHT22;45778;51.142;3.732;2023-07-31T06:53:47;16.70;99.90
59923;DHT22;45778;51.142;3.732;2023-07-31T06:56:13;16.80;99.90
59923;DHT22;45778;51.142;3.732;2023-07-31T06:58:39;16.80;99.90
59923;DHT22;45778;51.142;3.732;2023-07-31T07:01:04;16.80;99.90
59923;DHT22;45778;51.142;3.732;2023-07-31T07:03:30;16.90;99.90
59923;DHT22;45778;51.142;3.732;2023-07-31T07:05:56;16.90;99.90
59923;DHT22;45778;51.142;3.732;2023-07-31T07:08:21;17.00;99.90
59923;DHT22;45778;51.142;3.732;2023-07-31T07:10:47;17.00;99.90
59923;DHT22;45778;51.142;3.732;2023-07-31T07:13:13;17.10;99.90
59923;DHT22;45778;51.142;3.732;2023-07-31T07:15:39;17.10;99.90
59923;DHT22;45778;51.142;3.732;2023-07-31T07:18:05;17.10;99.90
59923;DHT22;45778;51.142;3.732;2023-07-31T07:20:30;17.10;99.90
59923;DHT22;45778;51.142;3.732;2023-07-31T07:22:56;17.20;99.90
59923;DHT22;45778;51.142;3.732;2023-07-31T07:25:22;17.30;99.90
59923;DHT22;45778;51.142;3.732;2023-07-31T07:27:47;17.40;99.90
59923;DHT22;45778;51.142;3.732;2023-07-31T07:30:13;17.50;99.90
59923;DHT22;45778;51.142;3.732;2023-07-31T07:32:39;17.60;99.90
59923;DHT22;45778;51.142;3.732;2023-07-31T07:35:06;17.60;99.90
59923;DHT22;45778;51.142;3.732;2023-07-31T07:37:32;17.60;99.90
59923;DHT22;45778;51.142;3.732;2023-07-31T07:39:57;17.60;99.90
59923;DHT22;45778;51.142;3.732;2023-07-31T07:42:23;17.70;99.90
59923;DHT22;45778;51.142;3.732;2023-07-31T07:44:49;17.80;99.90
59923;DHT22;45778;51.142;3.732;2023-07-31T07:47:15;17.70;99.90
59923;DHT22;45778;51.142;3.732;2023-07-31T07:49:40;17.60;99.90
59923;DHT22;45778;51.142;3.732;2023-07-31T07:52:06;17.60;99.90
59923;DHT22;45778;51.142;3.732;2023-07-31T07:54:32;17.50;99.90
59923;DHT22;45778;51.142;3.732;2023-07-31T07:56:58;17.40;99.90
59923;DHT22;45778;51.142;3.732;2023-07-31T07:59:23;17.40;99.90
59923;DHT22;45778;51.142;3.732;2023-07-31T08:01:49;17.30;99.90
59923;DHT22;45778;51.142;3.732;2023-07-31T08:04:14;17.40;99.90
59923;DHT22;45778;51.142;3.732;2023-07-31T08:06:40;17.50;99.90
59923;DHT22;45778;51.142;3.732;2023-07-31T08:09:06;17.60;99.90
59923;DHT22;45778;51.142;3.732;2023-07-31T08:11:35;17.70;99.90
59923;DHT22;45778;51.142;3.732;2023-07-31T08:14:00;17.80;99.90
59923;DHT22;45778;51.142;3.732;2023-07-31T08:16:26;17.80;99.90
59923;DHT22;45778;51.142;3.732;2023-07-31T08:18:52;18.00;99.90
59923;DHT22;45778;51.142;3.732;2023-07-31T08:21:18;18.10;99.90
59923;DHT22;45778;51.142;3.732;2023-07-31T08:23:43;18.10;99.90
59923;DHT22;45778;51.142;3.732;2023-07-31T08:26:15;18.20;99.90
59923;DHT22;45778;51.142;3.732;2023-07-31T08:28:41;18.40;99.90
59923;DHT22;45778;51.142;3.732;2023-07-31T08:31:07;18.50;99.90
59923;DHT22;45778;51.142;3.732;2023-07-31T08:33:32;18.80;99.90
59923;DHT22;45778;51.142;3.732;2023-07-31T08:35:58;18.80;99.90
59923;DHT22;45778;51.142;3.732;2023-07-31T08:38:25;19.00;99.90
59923;DHT22;45778;51.142;3.732;2023-07-31T08:40:51;19.10;99.90
59923;DHT22;45778;51.142;3.732;2023-07-31T08:43:18;19.00;99.90
59923;DHT22;45778;51.142;3.732;2023-07-31T08:45:44;19.10;99.90
59923;DHT22;45778;51.142;3.732;2023-07-31T08:48:11;19.20;99.90
59923;DHT22;45778;51.142;3.732;2023-07-31T08:50:38;19.40;99.90
59923;DHT22;45778;51.142;3.732;2023-07-31T08:53:04;19.50;99.90
59923;DHT22;45778;51.142;3.732;2023-07-31T08:55:32;19.60;99.90
59923;DHT22;45778;51.142;3.732;2023-07-31T08:57:58;19.70;99.90
59923;DHT22;45778;51.142;3.732;2023-07-31T09:00:25;19.90;99.90
59923;DHT22;45778;51.142;3.732;2023-07-31T09:02:59;20.00;99.90
59923;DHT22;45778;51.142;3.732;2023-07-31T09:05:29;19.70;99.90
59923;DHT22;45778;51.142;3.732;2023-07-31T09:07:56;19.60;99.90
59923;DHT22;45778;51.142;3.732;2023-07-31T09:10:23;19.50;99.90
59923;DHT22;45778;51.142;3.732;2023-07-31T09:12:50;19.40;99.90
59923;DHT22;45778;51.142;3.732;2023-07-31T09:15:16;19.30;99.90
59923;DHT22;45778;51.142;3.732;2023-07-31T09:17:42;19.20;99.90
59923;DHT22;45778;51.142;3.732;2023-07-31T09:20:19;19.40;99.90
59923;DHT22;45778;51.142;3.732;2023-07-31T09:22:46;19.20;99.90
59923;DHT22;45778;51.142;3.732;2023-07-31T09:25:21;19.30;99.90
59923;DHT22;45778;51.142;3.732;2023-07-31T09:27:57;19.40;99.90
59923;DHT22;45778;51.142;3.732;2023-07-31T09:30:23;19.40;99.90
59923;DHT22;45778;51.142;3.732;2023-07-31T09:32:50;19.40;99.90
59923;DHT22;45778;51.142;3.732;2023-07-31T09:35:27;19.30;99.90
59923;DHT22;45778;51.142;3.732;2023-07-31T09:37:58;19.40;99.90
59923;DHT22;45778;51.142;3.732;2023-07-31T09:42:57;19.20;99.90
59923;DHT22;45778;51.142;3.732;2023-07-31T09:45:24;19.40;99.90
59923;DHT22;45778;51.142;3.732;2023-07-31T09:47:50;19.70;99.90
59923;DHT22;45778;51.142;3.732;2023-07-31T09:50:15;19.60;99.90
59923;DHT22;45778;51.142;3.732;2023-07-31T09:52:41;19.70;99.90
59923;DHT22;45778;51.142;3.732;2023-07-31T09:55:08;19.60;99.90
59923;DHT22;45778;51.142;3.732;2023-07-31T09:57:35;19.70;99.90
59923;DHT22;45778;51.142;3.732;2023-07-31T10:00:04;19.40;99.90
59923;DHT22;45778;51.142;3.732;2023-07-31T10:02:30;19.50;99.90
59923;DHT22;45778;51.142;3.732;2023-07-31T10:04:58;19.40;99.90
59923;DHT22;45778;51.142;3.732;2023-07-31T10:07:29;19.40;99.90
59923;DHT22;45778;51.142;3.732;2023-07-31T10:09:58;19.50;99.90
59923;DHT22;45778;51.142;3.732;2023-07-31T10:12:26;19.50;99.90
59923;DHT22;45778;51.142;3.732;2023-07-31T10:14:54;19.70;99.90
59923;DHT22;45778;51.142;3.732;2023-07-31T10:17:22;19.90;99.90
59923;DHT22;45778;51.142;3.732;2023-07-31T10:19:49;20.00;99.90
59923;DHT22;45778;51.142;3.732;2023-07-31T10:22:15;19.70;99.90
59923;DHT22;45778;51.142;3.732;2023-07-31T10:24:46;19.60;99.90
59923;DHT22;45778;51.142;3.732;2023-07-31T10:27:12;19.60;99.90
59923;DHT22;45778;51.142;3.732;2023-07-31T10:29:38;19.50;99.90
59923;DHT22;45778;51.142;3.732;2023-07-31T10:32:07;19.60;99.90
59923;DHT22;45778;51.142;3.732;2023-07-31T10:34:36;19.40;99.90
59923;DHT22;45778;51.142;3.732;2023-07-31T10:40:19;19.70;99.90
59923;DHT22;45778;51.142;3.732;2023-07-31T10:42:50;20.00;99.90
59923;DHT22;45778;51.142;3.732;2023-07-31T10:45:39;20.20;99.90
59923;DHT22;45778;51.142;3.732;2023-07-31T10:48:06;20.20;99.90
59923;DHT22;45778;51.142;3.732;2023-07-31T10:50:37;20.00;99.90
59923;DHT22;45778;51.142;3.732;2023-07-31T10:53:03;19.90;99.90
59923;DHT22;45778;51.142;3.732;2023-07-31T10:55:40;19.90;99.90
59923;DHT22;45778;51.142;3.732;2023-07-31T11:00:33;20.00;99.90
59923;DHT22;45778;51.142;3.732;2023-07-31T11:08:24;20.10;99.90
59923;DHT22;45778;51.142;3.732;2023-07-31T11:11:12;20.10;99.90
59923;DHT22;45778;51.142;3.732;2023-07-31T11:13:46;20.10;99.90
59923;DHT22;45778;51.142;3.732;2023-07-31T11:16:16;20.10;99.90
59923;DHT22;45778;51.142;3.732;2023-07-31T11:18:46;20.10;99.90
59923;DHT22;45778;51.142;3.732;2023-07-31T11:23:47;20.20;99.90
59923;DHT22;45778;51.142;3.732;2023-07-31T11:26:13;20.50;99.90
59923;DHT22;45778;51.142;3.732;2023-07-31T11:28:39;20.60;99.90
59923;DHT22;45778;51.142;3.732;2023-07-31T11:31:09;20.30;99.90
59923;DHT22;45778;51.142;3.732;2023-07-31T11:33:35;20.20;99.90
59923;DHT22;45778;51.142;3.732;2023-07-31T11:36:01;20.10;99.90
59923;DHT22;45778;51.142;3.732;2023-07-31T11:38:31;20.20;99.90
59923;DHT22;45778;51.142;3.732;2023-07-31T11:41:00;20.20;99.90
59923;DHT22;45778;51.142;3.732;2023-07-31T11:43:28;20.20;99.90
59923;DHT22;45778;51.142;3.732;2023-07-31T11:45:56;20.30;99.90
59923;DHT22;45778;51.142;3.732;2023-07-31T11:48:22;20.40;99.90
59923;DHT22;45778;51.142;3.732;2023-07-31T11:50:50;20.50;99.90
59923;DHT22;45778;51.142;3.732;2023-07-31T11:53:18;20.60;99.90
59923;DHT22;45778;51.142;3.732;2023-07-31T11:55:45;20.60;99.90
59923;DHT22;45778;51.142;3.732;2023-07-31T11:58:12;20.80;99.90
59923;DHT22;45778;51.142;3.732;2023-07-31T12:00:40;20.80;99.90
59923;DHT22;45778;51.142;3.732;2023-07-31T12:03:06;20.80;99.90
59923;DHT22;45778;51.142;3.732;2023-07-31T12:05:31;20.70;99.90
59923;DHT22;45778;51.142;3.732;2023-07-31T12:07:57;20.70;99.90
59923;DHT22;45778;51.142;3.732;2023-07-31T12:10:25;20.70;99.90
59923;DHT22;45778;51.142;3.732;2023-07-31T12:17:59;20.60;99.90
59923;DHT22;45778;51.142;3.732;2023-07-31T12:20:25;20.40;99.90
59923;DHT22;45778;51.142;3.732;2023-07-31T12:22:50;20.40;99.90
59923;DHT22;45778;51.142;3.732;2023-07-31T12:25:16;20.30;99.90
59923;DHT22;45778;51.142;3.732;2023-07-31T12:27:44;20.20;99.90
59923;DHT22;45778;51.142;3.732;2023-07-31T12:30:34;20.00;99.90
59923;DHT22;45778;51.142;3.732;2023-07-31T12:33:04;19.70;99.90
59923;DHT22;45778;51.142;3.732;2023-07-31T12:35:38;19.30;99.90
59923;DHT22;45778;51.142;3.732;2023-07-31T12:38:05;19.10;99.90
59923;DHT22;45778;51.142;3.732;2023-07-31T12:40:32;18.90;99.90
59923;DHT22;45778;51.142;3.732;2023-07-31T12:42:58;18.80;99.90
59923;DHT22;45778;51.142;3.732;2023-07-31T12:45:26;18.70;99.90
59923;DHT22;45778;51.142;3.732;2023-07-31T12:47:52;18.70;99.90
59923;DHT22;45778;51.142;3.732;2023-07-31T12:50:18;18.60;99.90
59923;DHT22;45778;51.142;3.732;2023-07-31T12:52:43;18.40;99.90
59923;DHT22;45778;51.142;3.732;2023-07-31T12:55:09;18.50;99.90
59923;DHT22;45778;51.142;3.732;2023-07-31T12:57:36;18.50;99.90
59923;DHT22;45778;51.142;3.732;2023-07-31T13:00:02;18.50;99.90
59923;DHT22;45778;51.142;3.732;2023-07-31T13:02:28;18.50;99.90
59923;DHT22;45778;51.142;3.732;2023-07-31T13:04:54;18.50;99.90
59923;DHT22;45778;51.142;3.732;2023-07-31T13:07:22;18.40;99.90
59923;DHT22;45778;51.142;3.732;2023-07-31T13:09:48;18.50;99.90
59923;DHT22;45778;51.142;3.732;2023-07-31T13:12:14;18.50;99.90
59923;DHT22;45778;51.142;3.732;2023-07-31T13:14:40;18.40;99.90
59923;DHT22;45778;51.142;3.732;2023-07-31T13:17:05;18.30;99.90
59923;DHT22;45778;51.142;3.732;2023-07-31T13:19:31;18.20;99.90
59923;DHT22;45778;51.142;3.732;2023-07-31T13:21:57;18.10;99.90
59923;DHT22;45778;51.142;3.732;2023-07-31T13:24:22;18.00;99.90
59923;DHT22;45778;51.142;3.732;2023-07-31T13:26:48;17.90;99.90
59923;DHT22;45778;51.142;3.732;2023-07-31T13:29:14;18.00;99.90
59923;DHT22;45778;51.142;3.732;2023-07-31T13:31:39;18.00;99.90
59923;DHT22;45778;51.142;3.732;2023-07-31T13:34:05;18.00;99.90
59923;DHT22;45778;51.142;3.732;2023-07-31T13:36:31;17.90;99.90
59923;DHT22;45778;51.142;3.732;2023-07-31T13:38:56;17.90;99.90
59923;DHT22;45778;51.142;3.732;2023-07-31T13:41:23;17.90;99.90
59923;DHT22;45778;51.142;3.732;2023-07-31T13:43:49;17.90;99.90
59923;DHT22;45778;51.142;3.732;2023-07-31T13:46:14;17.90;99.90
59923;DHT22;45778;51.142;3.732;2023-07-31T13:48:40;18.00;99.90
59923;DHT22;45778;51.142;3.732;2023-07-31T13:51:06;18.00;99.90
59923;DHT22;45778;51.142;3.732;2023-07-31T13:53:32;18.00;99.90
59923;DHT22;45778;51.142;3.732;2023-07-31T13:55:57;18.10;99.90
59923;DHT22;45778;51.142;3.732;2023-07-31T13:58:23;18.00;99.90
59923;DHT22;45778;51.142;3.732;2023-07-31T14:00:48;18.10;99.90
59923;DHT22;45778;51.142;3.732;2023-07-31T14:03:14;18.10;99.90
59923;DHT22;45778;51.142;3.732;2023-07-31T14:05:40;18.00;99.90
59923;DHT22;45778;51.142;3.732;2023-07-31T14:08:05;18.00;99.90
59923;DHT22;45778;51.142;3.732;2023-07-31T14:10:31;17.90;99.90
59923;DHT22;45778;51.142;3.732;2023-07-31T14:12:57;17.90;99.90
59923;DHT22;45778;51.142;3.732;2023-07-31T14:15:22;17.90;99.90
59923;DHT22;45778;51.142;3.732;2023-07-31T14:17:48;17.90;99.90
59923;DHT22;45778;51.142;3.732;2023-07-31T14:20:14;17.90;99.90
59923;DHT22;45778;51.142;3.732;2023-07-31T14:22:39;17.90;99.90
59923;DHT22;45778;51.142;3.732;2023-07-31T14:25:05;18.00;99.90
59923;DHT22;45778;51.142;3.732;2023-07-31T14:27:31;18.00;99.90
59923;DHT22;45778;51.142;3.732;2023-07-31T14:29:57;18.00;99.90
59923;DHT22;45778;51.142;3.732;2023-07-31T14:32:23;18.00;99.90
59923;DHT22;45778;51.142;3.732;2023-07-31T14:34:51;18.00;99.90
59923;DHT22;45778;51.142;3.732;2023-07-31T14:37:16;18.00;99.90
59923;DHT22;45778;51.142;3.732;2023-07-31T14:39:42;17.90;99.90
59923;DHT22;45778;51.142;3.732;2023-07-31T14:42:09;18.00;99.90
59923;DHT22;45778;51.142;3.732;2023-07-31T14:44:34;17.90;99.90
59923;DHT22;45778;51.142;3.732;2023-07-31T14:47:00;17.90;99.90
59923;DHT22;45778;51.142;3.732;2023-07-31T14:49:26;18.00;99.90
59923;DHT22;45778;51.142;3.732;2023-07-31T14:51:53;17.90;99.90
59923;DHT22;45778;51.142;3.732;2023-07-31T14:54:19;17.90;99.90
59923;DHT22;45778;51.142;3.732;2023-07-31T14:56:45;18.00;99.90
59923;DHT22;45778;51.142;3.732;2023-07-31T14:59:11;18.00;99.90
59923;DHT22;45778;51.142;3.732;2023-07-31T15:01:37;18.00;99.90
59923;DHT22;45778;51.142;3.732;2023-07-31T15:04:03;18.00;99.90
59923;DHT22;45778;51.142;3.732;2023-07-31T15:06:29;18.00;99.90
59923;DHT22;45778;51.142;3.732;2023-07-31T15:08:54;18.00;99.90
59923;DHT22;45778;51.142;3.732;2023-07-31T15:11:20;18.00;99.90
59923;DHT22;45778;51.142;3.732;2023-07-31T15:13:46;17.90;99.90
59923;DHT22;45778;51.142;3.732;2023-07-31T15:16:11;17.90;99.90
59923;DHT22;45778;51.142;3.732;2023-07-31T15:18:38;17.90;99.90
59923;DHT22;45778;51.142;3.732;2023-07-31T15:21:03;18.00;99.90
59923;DHT22;45778;51.142;3.732;2023-07-31T15:23:31;18.00;99.90
59923;DHT22;45778;51.142;3.732;2023-07-31T15:25:56;18.00;99.90
59923;DHT22;45778;51.142;3.732;2023-07-31T15:28:22;18.00;99.90
59923;DHT22;45778;51.142;3.732;2023-07-31T15:30:48;17.90;99.90
59923;DHT22;45778;51.142;3.732;2023-07-31T15:33:14;18.00;99.90
59923;DHT22;45778;51.142;3.732;2023-07-31T15:35:40;18.00;99.90
59923;DHT22;45778;51.142;3.732;2023-07-31T15:38:06;18.00;99.90
59923;DHT22;45778;51.142;3.732;2023-07-31T15:40:32;17.90;99.90
59923;DHT22;45778;51.142;3.732;2023-07-31T15:42:57;17.90;99.90
59923;DHT22;45778;51.142;3.732;2023-07-31T15:45:26;18.00;99.90
59923;DHT22;45778;51.142;3.732;2023-07-31T15:47:51;17.90;99.90
59923;DHT22;45778;51.142;3.732;2023-07-31T15:50:17;18.00;99.90
59923;DHT22;45778;51.142;3.732;2023-07-31T15:52:43;18.00;99.90